PWSweather.com
Personal Weather Stations
Station Observations
K7AZM
Phoenix, AZ 85050

Phoenix, AZ 85050

Lat: 33.662, Lon: -112.019

Elevation: 1500

Station Type: Davis Vantage Vue

http://www.silhanek.com/weather

High Low Average
Temperature 50.8°F10.4°C 37.1°F2.8°C 43.1°F6.2°C
Dew Point 45.7°F7.6°C 23.6°F-4.7°C 36.3°F2.4°C
Winds 4.8 mph 7.7 kmh Calm Calm 1.0 mph E1.6 kmh E
Wind Gusts 12.0 mph19.3 kmh -- 4.0 mph6.4 kmh
Humidity 93% 37% 79%
Pressure 29.81 in1009.5 mb 29.64 in1003.7 mb -
Precipitation 1.34 in34.0 mm - -
Hour Temp Dew Point Humidity Winds Wind Gusts Pressure Precip Precip Rate Daily Precip Total
12:00 AM 48.8°F9.3°C 23.7°F-4.6°C 37% Calm Calm 3.0 mph4.8 kmh 29.81 in1009.5 mb 0.00 in0.0 mm 0.00 in0.0 mm 0.00 in0.0 mm
12:05 AM 48.8°F9.3°C 23.7°F-4.6°C 37% Calm Calm 1.0 mph1.6 kmh 29.81 in1009.5 mb 0.00 in0.0 mm 0.00 in0.0 mm 0.00 in0.0 mm
12:10 AM 48.9°F9.4°C 23.8°F-4.6°C 37% Calm Calm 1.0 mph1.6 kmh 29.80 in1009.1 mb 0.00 in0.0 mm 0.00 in0.0 mm 0.00 in0.0 mm
12:15 AM 48.8°F9.3°C 23.7°F-4.6°C 37% Calm Calm -- 29.81 in1009.5 mb 0.00 in0.0 mm 0.00 in0.0 mm 0.00 in0.0 mm
12:20 AM 48.7°F9.3°C 24.2°F-4.3°C 38% Calm Calm -- 29.81 in1009.5 mb 0.00 in0.0 mm 0.00 in0.0 mm 0.00 in0.0 mm
12:25 AM 48.8°F9.3°C 23.7°F-4.6°C 37% Calm Calm -- 29.80 in1009.1 mb 0.00 in0.0 mm 0.00 in0.0 mm 0.00 in0.0 mm
12:30 AM 48.8°F9.3°C 24.3°F-4.3°C 38% Calm Calm -- 29.80 in1009.1 mb 0.00 in0.0 mm 0.00 in0.0 mm 0.00 in0.0 mm
12:35 AM 48.7°F9.3°C 24.2°F-4.3°C 38% Calm Calm -- 29.80 in1009.1 mb 0.00 in0.0 mm 0.00 in0.0 mm 0.00 in0.0 mm
12:40 AM 48.6°F9.2°C 24.2°F-4.3°C 38% Calm Calm -- 29.80 in1009.1 mb 0.00 in0.0 mm 0.00 in0.0 mm 0.00 in0.0 mm
12:45 AM 48.4°F9.1°C 24.0°F-4.4°C 38% Calm Calm -- 29.80 in1009.1 mb 0.00 in0.0 mm 0.00 in0.0 mm 0.00 in0.0 mm
12:50 AM 48.0°F8.9°C 23.6°F-4.7°C 38% Calm Calm -- 29.80 in1009.1 mb 0.00 in0.0 mm 0.00 in0.0 mm 0.00 in0.0 mm
12:55 AM 47.7°F8.7°C 24.0°F-4.4°C 39% Calm Calm -- 29.80 in1009.1 mb 0.00 in0.0 mm 0.00 in0.0 mm 0.00 in0.0 mm
01:00 AM 47.4°F8.6°C 24.3°F-4.3°C 40% Calm Calm -- 29.79 in1008.8 mb 0.00 in0.0 mm 0.00 in0.0 mm 0.00 in0.0 mm
01:05 AM 47.1°F8.4°C 25.2°F-3.8°C 42% Calm Calm -- 29.80 in1009.1 mb 0.00 in0.0 mm 0.00 in0.0 mm 0.00 in0.0 mm
01:10 AM 46.8°F8.2°C 25.5°F-3.6°C 43% Calm Calm -- 29.80 in1009.1 mb 0.00 in0.0 mm 0.00 in0.0 mm 0.00 in0.0 mm
01:15 AM 46.5°F8.1°C 24.1°F-4.4°C 41% Calm Calm -- 29.79 in1008.8 mb 0.00 in0.0 mm 0.00 in0.0 mm 0.00 in0.0 mm
01:20 AM 46.2°F7.9°C 24.4°F-4.2°C 42% Calm Calm -- 29.80 in1009.1 mb 0.00 in0.0 mm 0.00 in0.0 mm 0.00 in0.0 mm
01:25 AM 46.0°F7.8°C 24.2°F-4.3°C 42% Calm Calm -- 29.79 in1008.8 mb 0.00 in0.0 mm 0.00 in0.0 mm 0.00 in0.0 mm
01:30 AM 45.7°F7.6°C 24.5°F-4.2°C 43% Calm Calm -- 29.79 in1008.8 mb 0.00 in0.0 mm 0.00 in0.0 mm 0.00 in0.0 mm
01:35 AM 45.8°F7.7°C 24.6°F-4.1°C 43% Calm Calm -- 29.79 in1008.8 mb 0.00 in0.0 mm 0.00 in0.0 mm 0.00 in0.0 mm
01:40 AM 45.8°F7.7°C 24.6°F-4.1°C 43% Calm Calm -- 29.79 in1008.8 mb 0.00 in0.0 mm 0.00 in0.0 mm 0.00 in0.0 mm
01:45 AM 45.7°F7.6°C 25.1°F-3.8°C 44% Calm Calm -- 29.79 in1008.8 mb 0.00 in0.0 mm 0.00 in0.0 mm 0.00 in0.0 mm
01:50 AM 45.7°F7.6°C 25.1°F-3.8°C 44% Calm Calm -- 29.79 in1008.8 mb 0.00 in0.0 mm 0.00 in0.0 mm 0.00 in0.0 mm
01:55 AM 45.8°F7.7°C 25.1°F-3.8°C 44% Calm Calm -- 29.79 in1008.8 mb 0.00 in0.0 mm 0.00 in0.0 mm 0.00 in0.0 mm
02:00 AM 45.9°F7.7°C 25.2°F-3.8°C 44% Calm Calm -- 29.79 in1008.8 mb 0.00 in0.0 mm 0.00 in0.0 mm 0.00 in0.0 mm
02:05 AM 46.2°F7.9°C 25.5°F-3.6°C 44% Calm Calm -- 29.79 in1008.8 mb 0.00 in0.0 mm 0.00 in0.0 mm 0.00 in0.0 mm
02:10 AM 46.5°F8.1°C 25.2°F-3.8°C 43% Calm Calm -- 29.79 in1008.8 mb 0.00 in0.0 mm 0.00 in0.0 mm 0.00 in0.0 mm
02:15 AM 46.6°F8.1°C 24.8°F-4.0°C 42% Calm Calm -- 29.79 in1008.8 mb 0.00 in0.0 mm 0.00 in0.0 mm 0.00 in0.0 mm
02:20 AM 46.5°F8.1°C 25.2°F-3.8°C 43% Calm Calm -- 29.79 in1008.8 mb 0.00 in0.0 mm 0.00 in0.0 mm 0.00 in0.0 mm
02:25 AM 46.4°F8.0°C 25.1°F-3.8°C 43% Calm Calm -- 29.79 in1008.8 mb 0.00 in0.0 mm 0.00 in0.0 mm 0.00 in0.0 mm
02:30 AM 46.3°F7.9°C 26.1°F-3.3°C 45% Calm Calm -- 29.78 in1008.5 mb 0.00 in0.0 mm 0.00 in0.0 mm 0.00 in0.0 mm
02:35 AM 46.5°F8.1°C 26.3°F-3.2°C 45% Calm Calm -- 29.78 in1008.5 mb 0.00 in0.0 mm 0.00 in0.0 mm 0.00 in0.0 mm
02:40 AM 46.7°F8.2°C 25.4°F-3.7°C 43% Calm Calm -- 29.78 in1008.5 mb 0.00 in0.0 mm 0.00 in0.0 mm 0.00 in0.0 mm
02:45 AM 47.1°F8.4°C 25.8°F-3.4°C 43% Calm Calm -- 29.78 in1008.5 mb 0.00 in0.0 mm 0.00 in0.0 mm 0.00 in0.0 mm
02:50 AM 47.3°F8.5°C 25.4°F-3.7°C 42% Calm Calm -- 29.79 in1008.8 mb 0.00 in0.0 mm 0.00 in0.0 mm 0.00 in0.0 mm
02:55 AM 47.2°F8.4°C 25.9°F-3.4°C 43% Calm Calm -- 29.79 in1008.8 mb 0.00 in0.0 mm 0.00 in0.0 mm 0.00 in0.0 mm
03:00 AM 47.2°F8.4°C 26.4°F-3.1°C 44% Calm Calm -- 29.78 in1008.5 mb 0.00 in0.0 mm 0.00 in0.0 mm 0.00 in0.0 mm
03:05 AM 47.3°F8.5°C 25.9°F-3.4°C 43% Calm Calm -- 29.78 in1008.5 mb 0.00 in0.0 mm 0.00 in0.0 mm 0.00 in0.0 mm
03:10 AM 47.5°F8.6°C 26.7°F-2.9°C 44% Calm Calm -- 29.78 in1008.5 mb 0.00 in0.0 mm 0.00 in0.0 mm 0.00 in0.0 mm
03:15 AM 47.4°F8.6°C 27.7°F-2.4°C 46% Calm Calm -- 29.78 in1008.5 mb 0.00 in0.0 mm 0.00 in0.0 mm 0.00 in0.0 mm
03:20 AM 47.2°F8.4°C 28.0°F-2.2°C 47% Calm Calm -- 29.77 in1008.1 mb 0.00 in0.0 mm 0.00 in0.0 mm 0.00 in0.0 mm
03:25 AM 47.4°F8.6°C 27.7°F-2.4°C 46% Calm Calm -- 29.77 in1008.1 mb 0.00 in0.0 mm 0.00 in0.0 mm 0.00 in0.0 mm
03:30 AM 47.6°F8.7°C 28.4°F-2.0°C 47% Calm Calm -- 29.77 in1008.1 mb 0.00 in0.0 mm 0.00 in0.0 mm 0.00 in0.0 mm
03:35 AM 47.5°F8.6°C 29.3°F-1.5°C 49% Calm Calm -- 29.77 in1008.1 mb 0.00 in0.0 mm 0.00 in0.0 mm 0.00 in0.0 mm
03:40 AM 47.3°F8.5°C 29.6°F-1.3°C 50% Calm Calm -- 29.77 in1008.1 mb 0.00 in0.0 mm 0.00 in0.0 mm 0.00 in0.0 mm
03:45 AM 47.3°F8.5°C 30.1°F-1.1°C 51% Calm Calm -- 29.77 in1008.1 mb 0.00 in0.0 mm 0.00 in0.0 mm 0.00 in0.0 mm
03:50 AM 47.3°F8.5°C 30.6°F-0.8°C 52% Calm Calm -- 29.77 in1008.1 mb 0.00 in0.0 mm 0.00 in0.0 mm 0.00 in0.0 mm
03:55 AM 47.3°F8.5°C 31.0°F-0.6°C 53% Calm Calm -- 29.77 in1008.1 mb 0.00 in0.0 mm 0.00 in0.0 mm 0.00 in0.0 mm
04:00 AM 47.3°F8.5°C 32.0°F0.0°C 55% Calm Calm -- 29.76 in1007.8 mb 0.00 in0.0 mm 0.00 in0.0 mm 0.00 in0.0 mm
04:05 AM 47.2°F8.4°C 31.4°F-0.3°C 54% 0.5 mph ESE0.8 kmh ESE 4.0 mph6.4 kmh 29.76 in1007.8 mb 0.00 in0.0 mm 0.00 in0.0 mm 0.00 in0.0 mm
04:10 AM 46.8°F8.2°C 31.9°F-0.1°C 56% 0.8 mph E1.3 kmh E 5.0 mph8.0 kmh 29.76 in1007.8 mb 0.00 in0.0 mm 0.00 in0.0 mm 0.00 in0.0 mm
04:15 AM 46.6°F8.1°C 31.8°F-0.1°C 56% 0.9 mph E1.4 kmh E 6.0 mph9.7 kmh 29.76 in1007.8 mb 0.00 in0.0 mm 0.00 in0.0 mm 0.00 in0.0 mm
04:20 AM 46.6°F8.1°C 32.2°F0.1°C 57% 0.7 mph NNE1.1 kmh NNE 6.0 mph9.7 kmh 29.76 in1007.8 mb 0.00 in0.0 mm 0.00 in0.0 mm 0.00 in0.0 mm
04:25 AM 46.5°F8.1°C 32.1°F0.1°C 57% 0.2 mph NE0.3 kmh NE 3.0 mph4.8 kmh 29.75 in1007.5 mb 0.00 in0.0 mm 0.00 in0.0 mm 0.00 in0.0 mm
04:30 AM 46.4°F8.0°C 32.0°F0.0°C 57% 0.7 mph ENE1.1 kmh ENE 4.0 mph6.4 kmh 29.75 in1007.5 mb 0.00 in0.0 mm 0.00 in0.0 mm 0.00 in0.0 mm
04:35 AM 46.4°F8.0°C 32.4°F0.2°C 58% 0.8 mph E1.3 kmh E 4.0 mph6.4 kmh 29.75 in1007.5 mb 0.00 in0.0 mm 0.00 in0.0 mm 0.00 in0.0 mm
04:40 AM 46.5°F8.1°C 32.1°F0.1°C 57% 0.7 mph ENE1.1 kmh ENE 4.0 mph6.4 kmh 29.75 in1007.5 mb 0.00 in0.0 mm 0.00 in0.0 mm 0.00 in0.0 mm
04:45 AM 46.6°F8.1°C 32.2°F0.1°C 57% 0.7 mph N1.1 kmh N 4.0 mph6.4 kmh 29.74 in1007.1 mb 0.00 in0.0 mm 0.00 in0.0 mm 0.00 in0.0 mm
04:50 AM 46.7°F8.2°C 32.3°F0.2°C 57% 1.3 mph NE2.1 kmh NE 4.0 mph6.4 kmh 29.74 in1007.1 mb 0.00 in0.0 mm 0.00 in0.0 mm 0.00 in0.0 mm
04:55 AM 46.8°F8.2°C 31.5°F-0.3°C 55% 2.1 mph E3.4 kmh E 4.0 mph6.4 kmh 29.74 in1007.1 mb 0.00 in0.0 mm 0.00 in0.0 mm 0.00 in0.0 mm
05:00 AM 46.9°F8.3°C 31.6°F-0.2°C 55% 3.4 mph ENE5.5 kmh ENE 8.0 mph12.9 kmh 29.73 in1006.8 mb 0.00 in0.0 mm 0.00 in0.0 mm 0.00 in0.0 mm
05:05 AM 46.8°F8.2°C 31.9°F-0.1°C 56% 4.5 mph E7.2 kmh E 10.0 mph16.1 kmh 29.74 in1007.1 mb 0.00 in0.0 mm 0.00 in0.0 mm 0.00 in0.0 mm
05:10 AM 46.4°F8.0°C 33.3°F0.7°C 60% 4.3 mph NNE6.9 kmh NNE 10.0 mph16.1 kmh 29.73 in1006.8 mb 0.00 in0.0 mm 0.00 in0.0 mm 0.00 in0.0 mm
05:15 AM 45.6°F7.6°C 34.5°F1.4°C 65% 4.2 mph N6.8 kmh N 9.0 mph14.5 kmh 29.73 in1006.8 mb 0.00 in0.0 mm 0.00 in0.0 mm 0.00 in0.0 mm
05:20 AM 44.9°F7.2°C 35.0°F1.7°C 68% 3.1 mph N5.0 kmh N 10.0 mph16.1 kmh 29.73 in1006.8 mb 0.00 in0.0 mm 0.00 in0.0 mm 0.00 in0.0 mm
05:25 AM 44.4°F6.9°C 35.2°F1.8°C 70% 3.5 mph N5.6 kmh N 10.0 mph16.1 kmh 29.73 in1006.8 mb 0.00 in0.0 mm 0.00 in0.0 mm 0.00 in0.0 mm
05:30 AM 44.1°F6.7°C 35.3°F1.8°C 71% 2.3 mph N3.7 kmh N 8.0 mph12.9 kmh 29.73 in1006.8 mb 0.00 in0.0 mm 0.00 in0.0 mm 0.00 in0.0 mm
05:35 AM 43.9°F6.6°C 35.8°F2.1°C 73% 2.1 mph N3.4 kmh N 5.0 mph8.0 kmh 29.72 in1006.4 mb 0.00 in0.0 mm 0.00 in0.0 mm 0.00 in0.0 mm
05:40 AM 43.8°F6.6°C 35.7°F2.1°C 73% 2.6 mph N4.2 kmh N 6.0 mph9.7 kmh 29.72 in1006.4 mb 0.00 in0.0 mm 0.00 in0.0 mm 0.00 in0.0 mm
05:45 AM 43.7°F6.5°C 36.0°F2.2°C 74% 3.6 mph NNE5.8 kmh NNE 8.0 mph12.9 kmh 29.72 in1006.4 mb 0.00 in0.0 mm 0.00 in0.0 mm 0.00 in0.0 mm
05:50 AM 43.6°F6.4°C 35.9°F2.2°C 74% 4.0 mph N6.4 kmh N 12.0 mph19.3 kmh 29.72 in1006.4 mb 0.00 in0.0 mm 0.00 in0.0 mm 0.00 in0.0 mm
05:55 AM 43.3°F6.3°C 35.6°F2.0°C 74% 3.4 mph ENE5.5 kmh ENE 12.0 mph19.3 kmh 29.72 in1006.4 mb 0.00 in0.0 mm 0.00 in0.0 mm 0.00 in0.0 mm
06:00 AM 43.0°F6.1°C 35.6°F2.0°C 75% 2.8 mph NE4.5 kmh NE 10.0 mph16.1 kmh 29.72 in1006.4 mb 0.00 in0.0 mm 0.00 in0.0 mm 0.00 in0.0 mm
06:05 AM 42.8°F6.0°C 35.4°F1.9°C 75% 3.8 mph ENE6.1 kmh ENE 8.0 mph12.9 kmh 29.72 in1006.4 mb 0.00 in0.0 mm 0.00 in0.0 mm 0.00 in0.0 mm
06:10 AM 42.7°F5.9°C 35.7°F2.1°C 76% 3.3 mph ENE5.3 kmh ENE 8.0 mph12.9 kmh 29.72 in1006.4 mb 0.00 in0.0 mm 0.00 in0.0 mm 0.00 in0.0 mm
06:15 AM 42.7°F5.9°C 35.7°F2.1°C 76% 2.9 mph ENE4.7 kmh ENE 8.0 mph12.9 kmh 29.72 in1006.4 mb 0.00 in0.0 mm 0.00 in0.0 mm 0.00 in0.0 mm
06:20 AM 42.7°F5.9°C 35.7°F2.1°C 76% 2.9 mph E4.7 kmh E 8.0 mph12.9 kmh 29.71 in1006.1 mb 0.00 in0.0 mm 0.00 in0.0 mm 0.00 in0.0 mm
06:25 AM 42.8°F6.0°C 35.8°F2.1°C 76% 3.0 mph E4.8 kmh E 8.0 mph12.9 kmh 29.71 in1006.1 mb 0.00 in0.0 mm 0.00 in0.0 mm 0.00 in0.0 mm
06:30 AM 42.8°F6.0°C 35.8°F2.1°C 76% 2.3 mph E3.7 kmh E 8.0 mph12.9 kmh 29.71 in1006.1 mb 0.00 in0.0 mm 0.00 in0.0 mm 0.00 in0.0 mm
06:35 AM 42.8°F6.0°C 36.1°F2.3°C 77% 3.3 mph E5.3 kmh E 8.0 mph12.9 kmh 29.71 in1006.1 mb 0.00 in0.0 mm 0.00 in0.0 mm 0.00 in0.0 mm
06:40 AM 42.8°F6.0°C 36.1°F2.3°C 77% 3.8 mph E6.1 kmh E 11.0 mph17.7 kmh 29.71 in1006.1 mb 0.00 in0.0 mm 0.00 in0.0 mm 0.00 in0.0 mm
06:45 AM 42.7°F5.9°C 36.3°F2.4°C 78% 4.2 mph E6.8 kmh E 11.0 mph17.7 kmh 29.71 in1006.1 mb 0.00 in0.0 mm 0.00 in0.0 mm 0.00 in0.0 mm
06:50 AM 42.5°F5.8°C 36.1°F2.3°C 78% 3.4 mph E5.5 kmh E 11.0 mph17.7 kmh 29.71 in1006.1 mb 0.00 in0.0 mm 0.00 in0.0 mm 0.00 in0.0 mm
06:55 AM 42.3°F5.7°C 36.3°F2.4°C 79% 3.8 mph E6.1 kmh E 8.0 mph12.9 kmh 29.72 in1006.4 mb 0.00 in0.0 mm 0.00 in0.0 mm 0.00 in0.0 mm
07:00 AM 42.1°F5.6°C 36.4°F2.4°C 80% 1.6 mph E2.6 kmh E 8.0 mph12.9 kmh 29.72 in1006.4 mb 0.00 in0.0 mm 0.00 in0.0 mm 0.00 in0.0 mm
07:05 AM 42.0°F5.6°C 36.6°F2.6°C 81% 0.9 mph E1.4 kmh E 6.0 mph9.7 kmh 29.72 in1006.4 mb 0.00 in0.0 mm 0.00 in0.0 mm 0.00 in0.0 mm
07:10 AM 41.9°F5.5°C 36.5°F2.5°C 81% 0.4 mph E0.6 kmh E 5.0 mph8.0 kmh 29.72 in1006.4 mb 0.00 in0.0 mm 0.00 in0.0 mm 0.00 in0.0 mm
07:15 AM 41.9°F5.5°C 36.8°F2.7°C 82% 1.1 mph E1.8 kmh E 7.0 mph11.3 kmh 29.72 in1006.4 mb 0.00 in0.0 mm 0.00 in0.0 mm 0.00 in0.0 mm
07:20 AM 41.9°F5.5°C 36.8°F2.7°C 82% 1.3 mph E2.1 kmh E 7.0 mph11.3 kmh 29.72 in1006.4 mb 0.00 in0.0 mm 0.00 in0.0 mm 0.00 in0.0 mm
07:25 AM 41.9°F5.5°C 36.8°F2.7°C 82% 1.5 mph E2.4 kmh E 5.0 mph8.0 kmh 29.71 in1006.1 mb 0.00 in0.0 mm 0.00 in0.0 mm 0.00 in0.0 mm
07:30 AM 41.9°F5.5°C 37.1°F2.8°C 83% 1.5 mph E2.4 kmh E 7.0 mph11.3 kmh 29.71 in1006.1 mb 0.00 in0.0 mm 0.00 in0.0 mm 0.00 in0.0 mm
07:35 AM 42.0°F5.6°C 37.2°F2.9°C 83% 1.9 mph E3.1 kmh E 7.0 mph11.3 kmh 29.72 in1006.4 mb 0.01 in0.3 mm 0.12 in3.0 mm 0.01 in0.3 mm
07:40 AM 42.1°F5.6°C 37.3°F2.9°C 83% 3.0 mph E4.8 kmh E 8.0 mph12.9 kmh 29.72 in1006.4 mb 0.01 in0.3 mm 0.00 in0.0 mm 0.01 in0.3 mm
07:45 AM 42.1°F5.6°C 37.6°F3.1°C 84% 3.7 mph E6.0 kmh E 9.0 mph14.5 kmh 29.72 in1006.4 mb 0.02 in0.5 mm 0.12 in3.0 mm 0.02 in0.5 mm
07:50 AM 42.0°F5.6°C 37.8°F3.2°C 85% 3.2 mph E5.1 kmh E 9.0 mph14.5 kmh 29.72 in1006.4 mb 0.03 in0.8 mm 0.12 in3.0 mm 0.03 in0.8 mm
07:55 AM 41.8°F5.4°C 37.9°F3.3°C 86% 2.0 mph E3.2 kmh E 8.0 mph12.9 kmh 29.73 in1006.8 mb 0.04 in1.0 mm 0.12 in3.0 mm 0.04 in1.0 mm
08:00 AM 41.7°F5.4°C 38.1°F3.4°C 87% 1.6 mph E2.6 kmh E 6.0 mph9.7 kmh 29.73 in1006.8 mb 0.05 in1.3 mm 0.01 in0.3 mm 0.05 in1.3 mm
08:05 AM 41.6°F5.3°C 38.0°F3.3°C 87% 1.3 mph E2.1 kmh E 5.0 mph8.0 kmh 29.72 in1006.4 mb 0.06 in1.5 mm 0.12 in3.0 mm 0.06 in1.5 mm
08:10 AM 41.6°F5.3°C 38.3°F3.5°C 88% 1.5 mph E2.4 kmh E 6.0 mph9.7 kmh 29.72 in1006.4 mb 0.07 in1.8 mm 0.12 in3.0 mm 0.07 in1.8 mm
08:15 AM 41.7°F5.4°C 38.7°F3.7°C 89% 1.4 mph E2.3 kmh E 6.0 mph9.7 kmh 29.72 in1006.4 mb 0.07 in1.8 mm 0.00 in0.0 mm 0.07 in1.8 mm
08:20 AM 41.8°F5.4°C 38.8°F3.8°C 89% 1.8 mph E2.9 kmh E 6.0 mph9.7 kmh 29.72 in1006.4 mb 0.07 in1.8 mm 0.00 in0.0 mm 0.07 in1.8 mm
08:25 AM 41.9°F5.5°C 38.9°F3.8°C 89% 2.9 mph E4.7 kmh E 6.0 mph9.7 kmh 29.73 in1006.8 mb 0.07 in1.8 mm 0.00 in0.0 mm 0.07 in1.8 mm
08:30 AM 42.0°F5.6°C 39.0°F3.9°C 89% 1.7 mph E2.7 kmh E 6.0 mph9.7 kmh 29.73 in1006.8 mb 0.08 in2.0 mm 0.12 in3.0 mm 0.08 in2.0 mm
08:35 AM 42.0°F5.6°C 39.0°F3.9°C 89% 1.9 mph E3.1 kmh E 6.0 mph9.7 kmh 29.73 in1006.8 mb 0.07 in1.8 mm 0.00 in0.0 mm 0.08 in2.0 mm
08:40 AM 42.0°F5.6°C 39.0°F3.9°C 89% 1.6 mph E2.6 kmh E 6.0 mph9.7 kmh 29.73 in1006.8 mb 0.08 in2.0 mm 0.12 in3.0 mm 0.09 in2.3 mm
08:45 AM 42.0°F5.6°C 39.3°F4.1°C 90% 2.1 mph E3.4 kmh E 5.0 mph8.0 kmh 29.73 in1006.8 mb 0.08 in2.0 mm 0.00 in0.0 mm 0.10 in2.5 mm
08:50 AM 42.1°F5.6°C 39.4°F4.1°C 90% 1.7 mph E2.7 kmh E 5.0 mph8.0 kmh 29.73 in1006.8 mb 0.08 in2.0 mm 0.00 in0.0 mm 0.11 in2.8 mm
08:55 AM 42.2°F5.7°C 39.8°F4.3°C 91% 2.0 mph E3.2 kmh E 4.0 mph6.4 kmh 29.73 in1006.8 mb 0.07 in1.8 mm 0.00 in0.0 mm 0.11 in2.8 mm
09:00 AM 42.3°F5.7°C 39.9°F4.4°C 91% 1.4 mph E2.3 kmh E 4.0 mph6.4 kmh 29.73 in1006.8 mb 0.06 in1.5 mm 0.00 in0.0 mm 0.11 in2.8 mm
09:05 AM 42.4°F5.8°C 39.7°F4.3°C 90% 2.0 mph ENE3.2 kmh ENE 5.0 mph8.0 kmh 29.72 in1006.4 mb 0.05 in1.3 mm 0.00 in0.0 mm 0.11 in2.8 mm
09:10 AM 42.6°F5.9°C 39.9°F4.4°C 90% 1.3 mph E2.1 kmh E 5.0 mph8.0 kmh 29.73 in1006.8 mb 0.04 in1.0 mm 0.00 in0.0 mm 0.11 in2.8 mm
09:15 AM 42.7°F5.9°C 40.0°F4.4°C 90% 1.1 mph ENE1.8 kmh ENE 4.0 mph6.4 kmh 29.72 in1006.4 mb 0.04 in1.0 mm 0.00 in0.0 mm 0.11 in2.8 mm
09:20 AM 42.8°F6.0°C 40.1°F4.5°C 90% 1.0 mph E1.6 kmh E 4.0 mph6.4 kmh 29.73 in1006.8 mb 0.04 in1.0 mm 0.00 in0.0 mm 0.11 in2.8 mm
09:25 AM 42.9°F6.1°C 40.2°F4.6°C 90% 0.6 mph E1.0 kmh E 5.0 mph8.0 kmh 29.73 in1006.8 mb 0.05 in1.3 mm 0.12 in3.0 mm 0.12 in3.0 mm
09:30 AM 42.9°F6.1°C 40.5°F4.7°C 91% 0.7 mph E1.1 kmh E 5.0 mph8.0 kmh 29.73 in1006.8 mb 0.05 in1.3 mm 0.00 in0.0 mm 0.13 in3.3 mm
09:35 AM 42.8°F6.0°C 40.4°F4.7°C 91% 0.2 mph ENE0.3 kmh ENE 3.0 mph4.8 kmh 29.73 in1006.8 mb 0.06 in1.5 mm 0.12 in3.0 mm 0.14 in3.6 mm
09:40 AM 42.8°F6.0°C 40.4°F4.7°C 91% 0.1 mph E0.2 kmh E 1.0 mph1.6 kmh 29.73 in1006.8 mb 0.07 in1.8 mm 0.12 in3.0 mm 0.16 in4.1 mm
09:45 AM 42.9°F6.1°C 40.5°F4.7°C 91% 0.8 mph E1.3 kmh E 3.0 mph4.8 kmh 29.73 in1006.8 mb 0.08 in2.0 mm 0.12 in3.0 mm 0.19 in4.8 mm
09:50 AM 42.9°F6.1°C 40.7°F4.8°C 92% 1.5 mph E2.4 kmh E 4.0 mph6.4 kmh 29.73 in1006.8 mb 0.08 in2.0 mm 0.00 in0.0 mm 0.19 in4.8 mm
09:55 AM 43.0°F6.1°C 40.6°F4.8°C 91% 1.5 mph E2.4 kmh E 7.0 mph11.3 kmh 29.72 in1006.4 mb 0.09 in2.3 mm 0.12 in3.0 mm 0.20 in5.1 mm
10:00 AM 43.2°F6.2°C 41.0°F5.0°C 92% 0.3 mph E0.5 kmh E 7.0 mph11.3 kmh 29.72 in1006.4 mb 0.10 in2.5 mm 0.01 in0.3 mm 0.21 in5.3 mm
10:05 AM 43.3°F6.3°C 41.1°F5.1°C 92% Calm Calm 3.0 mph4.8 kmh 29.72 in1006.4 mb 0.10 in2.5 mm 0.00 in0.0 mm 0.21 in5.3 mm
10:10 AM 43.5°F6.4°C 41.3°F5.2°C 92% 0.1 mph E0.2 kmh E 1.0 mph1.6 kmh 29.71 in1006.1 mb 0.10 in2.5 mm 0.00 in0.0 mm 0.21 in5.3 mm
10:15 AM 43.6°F6.4°C 41.4°F5.2°C 92% 1.0 mph E1.6 kmh E 3.0 mph4.8 kmh 29.71 in1006.1 mb 0.10 in2.5 mm 0.00 in0.0 mm 0.21 in5.3 mm
10:20 AM 43.7°F6.5°C 41.5°F5.3°C 92% 1.3 mph E2.1 kmh E 3.0 mph4.8 kmh 29.72 in1006.4 mb 0.12 in3.0 mm 0.24 in6.1 mm 0.23 in5.8 mm
10:25 AM 43.7°F6.5°C 41.5°F5.3°C 92% 1.6 mph E2.6 kmh E 4.0 mph6.4 kmh 29.71 in1006.1 mb 0.12 in3.0 mm 0.00 in0.0 mm 0.24 in6.1 mm
10:30 AM 43.6°F6.4°C 41.1°F5.1°C 91% 0.5 mph ENE0.8 kmh ENE 4.0 mph6.4 kmh 29.71 in1006.1 mb 0.13 in3.3 mm 0.12 in3.0 mm 0.26 in6.6 mm
10:35 AM 43.6°F6.4°C 41.4°F5.2°C 92% Calm Calm 3.0 mph4.8 kmh 29.71 in1006.1 mb 0.12 in3.0 mm 0.00 in0.0 mm 0.26 in6.6 mm
10:40 AM 43.6°F6.4°C 41.4°F5.2°C 92% Calm Calm 1.0 mph1.6 kmh 29.71 in1006.1 mb 0.10 in2.5 mm 0.00 in0.0 mm 0.26 in6.6 mm
10:45 AM 43.8°F6.6°C 41.6°F5.3°C 92% Calm Calm 1.0 mph1.6 kmh 29.70 in1005.8 mb 0.09 in2.3 mm 0.00 in0.0 mm 0.27 in6.9 mm
10:50 AM 44.0°F6.7°C 41.8°F5.4°C 92% 0.1 mph NE0.2 kmh NE 2.0 mph3.2 kmh 29.70 in1005.8 mb 0.08 in2.0 mm 0.00 in0.0 mm 0.27 in6.9 mm
10:55 AM 44.2°F6.8°C 42.0°F5.6°C 92% 0.1 mph E0.2 kmh E 2.0 mph3.2 kmh 29.70 in1005.8 mb 0.07 in1.8 mm 0.00 in0.0 mm 0.27 in6.9 mm
11:00 AM 44.3°F6.8°C 41.8°F5.4°C 91% Calm Calm 1.0 mph1.6 kmh 29.70 in1005.8 mb 0.06 in1.5 mm 0.00 in0.0 mm 0.27 in6.9 mm
11:05 AM 44.4°F6.9°C 42.2°F5.7°C 92% 0.1 mph ESE0.2 kmh ESE 1.0 mph1.6 kmh 29.70 in1005.8 mb 0.07 in1.8 mm 0.12 in3.0 mm 0.28 in7.1 mm
11:10 AM 44.4°F6.9°C 42.2°F5.7°C 92% 1.9 mph WSW3.1 kmh WSW 5.0 mph8.0 kmh 29.70 in1005.8 mb 0.08 in2.0 mm 0.12 in3.0 mm 0.29 in7.4 mm
11:15 AM 43.9°F6.6°C 41.4°F5.2°C 91% 4.0 mph WSW6.4 kmh WSW 8.0 mph12.9 kmh 29.69 in1005.4 mb 0.08 in2.0 mm 0.00 in0.0 mm 0.29 in7.4 mm
11:20 AM 43.6°F6.4°C 41.4°F5.2°C 92% 2.5 mph SW4.0 kmh SW 8.0 mph12.9 kmh 29.70 in1005.8 mb 0.08 in2.0 mm 0.00 in0.0 mm 0.31 in7.9 mm
11:25 AM 43.6°F6.4°C 41.4°F5.2°C 92% 0.5 mph SE0.8 kmh SE 7.0 mph11.3 kmh 29.71 in1006.1 mb 0.11 in2.8 mm 0.36 in9.1 mm 0.35 in8.9 mm
11:30 AM 43.6°F6.4°C 41.4°F5.2°C 92% 0.1 mph W0.2 kmh W 3.0 mph4.8 kmh 29.70 in1005.8 mb 0.17 in4.3 mm 0.72 in18.3 mm 0.43 in10.9 mm
11:35 AM 43.6°F6.4°C 41.4°F5.2°C 92% 0.1 mph SW0.2 kmh SW 2.0 mph3.2 kmh 29.70 in1005.8 mb 0.30 in7.6 mm 1.56 in39.6 mm 0.56 in14.2 mm
11:40 AM 43.6°F6.4°C 41.7°F5.4°C 93% Calm Calm 2.0 mph3.2 kmh 29.70 in1005.8 mb 0.33 in8.4 mm 0.36 in9.1 mm 0.59 in15.0 mm
11:45 AM 43.8°F6.6°C 41.9°F5.5°C 93% 0.2 mph ESE0.3 kmh ESE 2.0 mph3.2 kmh 29.70 in1005.8 mb 0.33 in8.4 mm 0.00 in0.0 mm 0.60 in15.2 mm
11:50 AM 44.4°F6.9°C 42.5°F5.8°C 93% Calm Calm 2.0 mph3.2 kmh 29.69 in1005.4 mb 0.34 in8.6 mm 0.12 in3.0 mm 0.61 in15.5 mm
11:55 AM 45.2°F7.3°C 43.3°F6.3°C 93% Calm Calm -- 29.69 in1005.4 mb 0.34 in8.6 mm 0.00 in0.0 mm 0.61 in15.5 mm
12:00 PM 45.8°F7.7°C 43.9°F6.6°C 93% 0.1 mph E0.2 kmh E 1.0 mph1.6 kmh 29.68 in1005.1 mb 0.34 in8.6 mm 0.00 in0.0 mm 0.61 in15.5 mm
12:05 PM 46.7°F8.2°C 44.8°F7.1°C 93% 0.4 mph NE0.6 kmh NE 2.0 mph3.2 kmh 29.68 in1005.1 mb 0.33 in8.4 mm 0.00 in0.0 mm 0.61 in15.5 mm
12:10 PM 47.1°F8.4°C 44.6°F7.0°C 91% 0.4 mph NE0.6 kmh NE 2.0 mph3.2 kmh 29.68 in1005.1 mb 0.32 in8.1 mm 0.00 in0.0 mm 0.61 in15.5 mm
12:15 PM 47.7°F8.7°C 45.2°F7.3°C 91% 0.2 mph NE0.3 kmh NE 2.0 mph3.2 kmh 29.68 in1005.1 mb 0.32 in8.1 mm 0.00 in0.0 mm 0.61 in15.5 mm
12:20 PM 48.1°F8.9°C 45.3°F7.4°C 90% 0.6 mph N1.0 kmh N 2.0 mph3.2 kmh 29.67 in1004.7 mb 0.30 in7.6 mm 0.00 in0.0 mm 0.61 in15.5 mm
12:25 PM 48.2°F9.0°C 45.1°F7.3°C 89% 0.9 mph N1.4 kmh N 3.0 mph4.8 kmh 29.67 in1004.7 mb 0.26 in6.6 mm 0.00 in0.0 mm 0.61 in15.5 mm
12:30 PM 48.5°F9.2°C 45.7°F7.6°C 90% 0.2 mph NE0.3 kmh NE 3.0 mph4.8 kmh 29.67 in1004.7 mb 0.18 in4.6 mm 0.00 in0.0 mm 0.61 in15.5 mm
12:35 PM 48.9°F9.4°C 45.5°F7.5°C 88% 1.2 mph E1.9 kmh E 5.0 mph8.0 kmh 29.66 in1004.4 mb 0.05 in1.3 mm 0.00 in0.0 mm 0.61 in15.5 mm
12:40 PM 49.3°F9.6°C 44.7°F7.1°C 84% 3.0 mph E4.8 kmh E 9.0 mph14.5 kmh 29.65 in1004.1 mb 0.02 in0.5 mm 0.00 in0.0 mm 0.61 in15.5 mm
12:45 PM 49.6°F9.8°C 44.0°F6.7°C 81% 4.4 mph E7.1 kmh E 11.0 mph17.7 kmh 29.65 in1004.1 mb 0.01 in0.3 mm 0.00 in0.0 mm 0.61 in15.5 mm
12:50 PM 49.8°F9.9°C 44.2°F6.8°C 81% 2.9 mph E4.7 kmh E 11.0 mph17.7 kmh 29.64 in1003.7 mb 0.00 in0.0 mm 0.00 in0.0 mm 0.61 in15.5 mm
12:55 PM 50.3°F10.2°C 44.7°F7.1°C 81% 4.1 mph E6.6 kmh E 10.0 mph16.1 kmh 29.64 in1003.7 mb 0.00 in0.0 mm 0.00 in0.0 mm 0.61 in15.5 mm
01:00 PM 50.7°F10.4°C 44.4°F6.9°C 79% 3.3 mph E5.3 kmh E 10.0 mph16.1 kmh 29.64 in1003.7 mb 0.00 in0.0 mm 0.00 in0.0 mm 0.61 in15.5 mm
01:05 PM 50.8°F10.4°C 44.2°F6.8°C 78% 4.8 mph E7.7 kmh E 11.0 mph17.7 kmh 29.64 in1003.7 mb 0.00 in0.0 mm 0.00 in0.0 mm 0.61 in15.5 mm
01:10 PM 50.8°F10.4°C 43.5°F6.4°C 76% 4.8 mph E7.7 kmh E 11.0 mph17.7 kmh 29.65 in1004.1 mb 0.00 in0.0 mm 0.00 in0.0 mm 0.61 in15.5 mm
01:15 PM 50.5°F10.3°C 43.2°F6.2°C 76% 2.3 mph E3.7 kmh E 10.0 mph16.1 kmh 29.69 in1005.4 mb 0.00 in0.0 mm 0.00 in0.0 mm 0.61 in15.5 mm
01:20 PM 46.5°F8.1°C 39.3°F4.1°C 76% 3.0 mph NE4.8 kmh NE 10.0 mph16.1 kmh 29.70 in1005.8 mb 0.02 in0.5 mm 0.24 in6.1 mm 0.63 in16.0 mm
01:25 PM 43.0°F6.1°C 38.2°F3.4°C 83% 1.6 mph ESE2.6 kmh ESE 9.0 mph14.5 kmh 29.71 in1006.1 mb 0.06 in1.5 mm 0.48 in12.2 mm 0.67 in17.0 mm
01:30 PM 41.4°F5.2°C 37.5°F3.1°C 86% 1.1 mph SW1.8 kmh SW 5.0 mph8.0 kmh 29.71 in1006.1 mb 0.10 in2.5 mm 0.48 in12.2 mm 0.71 in18.0 mm
01:35 PM 40.7°F4.8°C 37.7°F3.2°C 89% 0.4 mph SSW0.6 kmh SSW 3.0 mph4.8 kmh 29.71 in1006.1 mb 0.11 in2.8 mm 0.12 in3.0 mm 0.72 in18.3 mm
01:40 PM 40.6°F4.8°C 37.9°F3.3°C 90% 0.2 mph WSW0.3 kmh WSW 2.0 mph3.2 kmh 29.71 in1006.1 mb 0.12 in3.0 mm 0.12 in3.0 mm 0.73 in18.5 mm
01:45 PM 40.6°F4.8°C 38.2°F3.4°C 91% Calm Calm 2.0 mph3.2 kmh 29.71 in1006.1 mb 0.14 in3.6 mm 0.24 in6.1 mm 0.75 in19.1 mm
01:50 PM 40.7°F4.8°C 38.6°F3.7°C 92% 0.2 mph WSW0.3 kmh WSW 3.0 mph4.8 kmh 29.70 in1005.8 mb 0.17 in4.3 mm 0.36 in9.1 mm 0.78 in19.8 mm
01:55 PM 40.9°F4.9°C 38.8°F3.8°C 92% 0.5 mph WSW0.8 kmh WSW 3.0 mph4.8 kmh 29.69 in1005.4 mb 0.17 in4.3 mm 0.00 in0.0 mm 0.78 in19.8 mm
02:00 PM 41.3°F5.2°C 39.4°F4.1°C 93% 0.2 mph WSW0.3 kmh WSW 3.0 mph4.8 kmh 29.70 in1005.8 mb 0.17 in4.3 mm 0.00 in0.0 mm 0.78 in19.8 mm
02:05 PM 41.4°F5.2°C 39.5°F4.2°C 93% Calm Calm 2.0 mph3.2 kmh 29.70 in1005.8 mb 0.18 in4.6 mm 0.12 in3.0 mm 0.79 in20.1 mm
02:10 PM 41.5°F5.3°C 39.4°F4.1°C 92% Calm Calm 1.0 mph1.6 kmh 29.70 in1005.8 mb 0.18 in4.6 mm 0.00 in0.0 mm 0.79 in20.1 mm
02:15 PM 41.6°F5.3°C 39.5°F4.2°C 92% 0.1 mph NNE0.2 kmh NNE 1.0 mph1.6 kmh 29.69 in1005.4 mb 0.18 in4.6 mm 0.00 in0.0 mm 0.79 in20.1 mm
02:20 PM 41.7°F5.4°C 39.6°F4.2°C 92% 0.1 mph N0.2 kmh N 2.0 mph3.2 kmh 29.70 in1005.8 mb 0.16 in4.1 mm 0.00 in0.0 mm 0.79 in20.1 mm
02:25 PM 41.8°F5.4°C 39.6°F4.2°C 92% 0.2 mph N0.3 kmh N 2.0 mph3.2 kmh 29.70 in1005.8 mb 0.12 in3.0 mm 0.00 in0.0 mm 0.79 in20.1 mm
02:30 PM 41.9°F5.5°C 39.7°F4.3°C 92% 0.3 mph N0.5 kmh N 2.0 mph3.2 kmh 29.70 in1005.8 mb 0.08 in2.0 mm 0.00 in0.0 mm 0.79 in20.1 mm
02:35 PM 41.9°F5.5°C 39.7°F4.3°C 92% 0.7 mph NNE1.1 kmh NNE 2.0 mph3.2 kmh 29.70 in1005.8 mb 0.07 in1.8 mm 0.00 in0.0 mm 0.79 in20.1 mm
02:40 PM 42.0°F5.6°C 39.8°F4.3°C 92% 0.7 mph NNE1.1 kmh NNE 2.0 mph3.2 kmh 29.70 in1005.8 mb 0.06 in1.5 mm 0.00 in0.0 mm 0.79 in20.1 mm
02:45 PM 42.1°F5.6°C 39.7°F4.3°C 91% 0.2 mph NNE0.3 kmh NNE 2.0 mph3.2 kmh 29.70 in1005.8 mb 0.04 in1.0 mm 0.00 in0.0 mm 0.79 in20.1 mm
02:50 PM 42.2°F5.7°C 39.8°F4.3°C 91% 0.1 mph N0.2 kmh N 1.0 mph1.6 kmh 29.70 in1005.8 mb 0.01 in0.3 mm 0.00 in0.0 mm 0.79 in20.1 mm
02:55 PM 42.3°F5.7°C 39.9°F4.4°C 91% 0.1 mph N0.2 kmh N 1.0 mph1.6 kmh 29.70 in1005.8 mb 0.02 in0.5 mm 0.12 in3.0 mm 0.80 in20.3 mm
03:00 PM 42.4°F5.8°C 40.0°F4.4°C 91% Calm Calm 1.0 mph1.6 kmh 29.71 in1006.1 mb 0.02 in0.5 mm 0.00 in0.0 mm 0.80 in20.3 mm
03:05 PM 42.6°F5.9°C 40.2°F4.6°C 91% Calm Calm 1.0 mph1.6 kmh 29.71 in1006.1 mb 0.01 in0.3 mm 0.00 in0.0 mm 0.80 in20.3 mm
03:10 PM 42.6°F5.9°C 39.9°F4.4°C 90% 0.1 mph N0.2 kmh N 1.0 mph1.6 kmh 29.70 in1005.8 mb 0.01 in0.3 mm 0.00 in0.0 mm 0.80 in20.3 mm
03:15 PM 42.8°F6.0°C 40.1°F4.5°C 90% 0.1 mph N0.2 kmh N 1.0 mph1.6 kmh 29.70 in1005.8 mb 0.02 in0.5 mm 0.12 in3.0 mm 0.81 in20.6 mm
03:20 PM 43.0°F6.1°C 40.6°F4.8°C 91% Calm Calm 1.0 mph1.6 kmh 29.71 in1006.1 mb 0.02 in0.5 mm 0.00 in0.0 mm 0.81 in20.6 mm
03:25 PM 43.0°F6.1°C 40.6°F4.8°C 91% 0.5 mph NE0.8 kmh NE 2.0 mph3.2 kmh 29.71 in1006.1 mb 0.03 in0.8 mm 0.12 in3.0 mm 0.82 in20.8 mm
03:30 PM 43.0°F6.1°C 40.6°F4.8°C 91% 1.1 mph 1.8 kmh 3.0 mph4.8 kmh 29.70 in1005.8 mb 0.03 in0.8 mm 0.00 in0.0 mm 0.82 in20.8 mm
03:35 PM 43.0°F6.1°C 40.6°F4.8°C 91% 1.0 mph 1.6 kmh 4.0 mph6.4 kmh 29.70 in1005.8 mb 0.03 in0.8 mm 0.00 in0.0 mm 0.82 in20.8 mm
03:40 PM 42.9°F6.1°C 40.5°F4.7°C 91% 1.0 mph N1.6 kmh N 4.0 mph6.4 kmh 29.71 in1006.1 mb 0.03 in0.8 mm 0.00 in0.0 mm 0.82 in20.8 mm
03:45 PM 43.0°F6.1°C 40.6°F4.8°C 91% 0.1 mph N0.2 kmh N 2.0 mph3.2 kmh 29.70 in1005.8 mb 0.03 in0.8 mm 0.00 in0.0 mm 0.82 in20.8 mm
03:50 PM 43.1°F6.2°C 40.9°F4.9°C 92% Calm Calm 1.0 mph1.6 kmh 29.70 in1005.8 mb 0.03 in0.8 mm 0.00 in0.0 mm 0.82 in20.8 mm
03:55 PM 43.2°F6.2°C 40.8°F4.9°C 91% 0.5 mph NNE0.8 kmh NNE 3.0 mph4.8 kmh 29.71 in1006.1 mb 0.02 in0.5 mm 0.00 in0.0 mm 0.82 in20.8 mm
04:00 PM 43.1°F6.2°C 40.7°F4.8°C 91% 1.1 mph N1.8 kmh N 3.0 mph4.8 kmh 29.70 in1005.8 mb 0.03 in0.8 mm 0.01 in0.3 mm 0.83 in21.1 mm
04:05 PM 43.2°F6.2°C 40.8°F4.9°C 91% 0.3 mph NE0.5 kmh NE 3.0 mph4.8 kmh 29.70 in1005.8 mb 0.03 in0.8 mm 0.00 in0.0 mm 0.83 in21.1 mm
04:10 PM 43.2°F6.2°C 40.8°F4.9°C 91% 0.1 mph N0.2 kmh N 1.0 mph1.6 kmh 29.71 in1006.1 mb 0.03 in0.8 mm 0.00 in0.0 mm 0.83 in21.1 mm
04:15 PM 43.2°F6.2°C 40.8°F4.9°C 91% Calm Calm 1.0 mph1.6 kmh 29.71 in1006.1 mb 0.02 in0.5 mm 0.00 in0.0 mm 0.83 in21.1 mm
04:20 PM 43.1°F6.2°C 40.9°F4.9°C 92% Calm Calm 1.0 mph1.6 kmh 29.72 in1006.4 mb 0.03 in0.8 mm 0.12 in3.0 mm 0.84 in21.3 mm
04:25 PM 43.1°F6.2°C 40.9°F4.9°C 92% Calm Calm 1.0 mph1.6 kmh 29.72 in1006.4 mb 0.03 in0.8 mm 0.00 in0.0 mm 0.85 in21.6 mm
04:30 PM 43.1°F6.2°C 40.9°F4.9°C 92% Calm Calm -- 29.72 in1006.4 mb 0.03 in0.8 mm 0.00 in0.0 mm 0.85 in21.6 mm
04:35 PM 43.1°F6.2°C 40.9°F4.9°C 92% Calm Calm -- 29.72 in1006.4 mb 0.04 in1.0 mm 0.12 in3.0 mm 0.86 in21.8 mm
04:40 PM 43.1°F6.2°C 40.9°F4.9°C 92% 0.2 mph ENE0.3 kmh ENE 2.0 mph3.2 kmh 29.72 in1006.4 mb 0.05 in1.3 mm 0.12 in3.0 mm 0.87 in22.1 mm
04:45 PM 43.1°F6.2°C 40.9°F4.9°C 92% Calm Calm 2.0 mph3.2 kmh 29.73 in1006.8 mb 0.06 in1.5 mm 0.12 in3.0 mm 0.88 in22.4 mm
04:50 PM 43.1°F6.2°C 40.9°F4.9°C 92% Calm Calm 1.0 mph1.6 kmh 29.73 in1006.8 mb 0.07 in1.8 mm 0.12 in3.0 mm 0.89 in22.6 mm
04:55 PM 43.1°F6.2°C 41.2°F5.1°C 93% Calm Calm 1.0 mph1.6 kmh 29.72 in1006.4 mb 0.08 in2.0 mm 0.12 in3.0 mm 0.90 in22.9 mm
05:00 PM 43.1°F6.2°C 40.9°F4.9°C 92% 0.3 mph ENE0.5 kmh ENE 1.0 mph1.6 kmh 29.72 in1006.4 mb 0.08 in2.0 mm 0.00 in0.0 mm 0.91 in23.1 mm
05:05 PM 43.2°F6.2°C 41.0°F5.0°C 92% 0.1 mph NE0.2 kmh NE 1.0 mph1.6 kmh 29.72 in1006.4 mb 0.08 in2.0 mm 0.00 in0.0 mm 0.91 in23.1 mm
05:10 PM 43.2°F6.2°C 41.0°F5.0°C 92% Calm Calm 1.0 mph1.6 kmh 29.73 in1006.8 mb 0.08 in2.0 mm 0.00 in0.0 mm 0.91 in23.1 mm
05:15 PM 43.1°F6.2°C 40.9°F4.9°C 92% 0.1 mph NNE0.2 kmh NNE 1.0 mph1.6 kmh 29.73 in1006.8 mb 0.09 in2.3 mm 0.12 in3.0 mm 0.92 in23.4 mm
05:20 PM 43.2°F6.2°C 41.0°F5.0°C 92% 0.5 mph N0.8 kmh N 2.0 mph3.2 kmh 29.73 in1006.8 mb 0.09 in2.3 mm 0.00 in0.0 mm 0.93 in23.6 mm
05:25 PM 43.2°F6.2°C 41.0°F5.0°C 92% 0.5 mph N0.8 kmh N 3.0 mph4.8 kmh 29.73 in1006.8 mb 0.08 in2.0 mm 0.00 in0.0 mm 0.93 in23.6 mm
05:30 PM 43.1°F6.2°C 40.9°F4.9°C 92% 0.1 mph NE0.2 kmh NE 3.0 mph4.8 kmh 29.73 in1006.8 mb 0.09 in2.3 mm 0.12 in3.0 mm 0.94 in23.9 mm
05:35 PM 43.1°F6.2°C 40.9°F4.9°C 92% 0.8 mph NNE1.3 kmh NNE 2.0 mph3.2 kmh 29.73 in1006.8 mb 0.08 in2.0 mm 0.00 in0.0 mm 0.94 in23.9 mm
05:40 PM 43.0°F6.1°C 40.8°F4.9°C 92% 1.0 mph N1.6 kmh N 3.0 mph4.8 kmh 29.73 in1006.8 mb 0.07 in1.8 mm 0.00 in0.0 mm 0.94 in23.9 mm
05:45 PM 43.0°F6.1°C 40.8°F4.9°C 92% 1.1 mph N1.8 kmh N 3.0 mph4.8 kmh 29.73 in1006.8 mb 0.07 in1.8 mm 0.00 in0.0 mm 0.95 in24.1 mm
05:50 PM 42.9°F6.1°C 40.5°F4.7°C 91% 2.1 mph N3.4 kmh N 4.0 mph6.4 kmh 29.73 in1006.8 mb 0.06 in1.5 mm 0.00 in0.0 mm 0.95 in24.1 mm
05:55 PM 42.9°F6.1°C 40.7°F4.8°C 92% 1.9 mph N3.1 kmh N 4.0 mph6.4 kmh 29.73 in1006.8 mb 0.05 in1.3 mm 0.00 in0.0 mm 0.95 in24.1 mm
06:00 PM 42.9°F6.1°C 40.5°F4.7°C 91% 1.7 mph N2.7 kmh N 6.0 mph9.7 kmh 29.73 in1006.8 mb 0.05 in1.3 mm 0.00 in0.0 mm 0.96 in24.4 mm
06:05 PM 42.8°F6.0°C 40.4°F4.7°C 91% 1.9 mph N3.1 kmh N 6.0 mph9.7 kmh 29.73 in1006.8 mb 0.05 in1.3 mm 0.00 in0.0 mm 0.96 in24.4 mm
06:10 PM 42.7°F5.9°C 40.3°F4.6°C 91% 2.2 mph N3.5 kmh N 6.0 mph9.7 kmh 29.73 in1006.8 mb 0.06 in1.5 mm 0.12 in3.0 mm 0.97 in24.6 mm
06:15 PM 42.6°F5.9°C 40.2°F4.6°C 91% 2.1 mph N3.4 kmh N 6.0 mph9.7 kmh 29.73 in1006.8 mb 0.05 in1.3 mm 0.00 in0.0 mm 0.97 in24.6 mm
06:20 PM 42.5°F5.8°C 40.1°F4.5°C 91% 1.8 mph N2.9 kmh N 5.0 mph8.0 kmh 29.73 in1006.8 mb 0.05 in1.3 mm 0.00 in0.0 mm 0.98 in24.9 mm
06:25 PM 42.4°F5.8°C 40.0°F4.4°C 91% 2.1 mph 3.4 kmh 5.0 mph8.0 kmh 29.73 in1006.8 mb 0.05 in1.3 mm 0.00 in0.0 mm 0.98 in24.9 mm
06:30 PM 42.4°F5.8°C 40.0°F4.4°C 91% 1.5 mph 2.4 kmh 5.0 mph8.0 kmh 29.73 in1006.8 mb 0.04 in1.0 mm 0.00 in0.0 mm 0.98 in24.9 mm
06:35 PM 42.3°F5.7°C 39.9°F4.4°C 91% 2.3 mph N3.7 kmh N 5.0 mph8.0 kmh 29.74 in1007.1 mb 0.05 in1.3 mm 0.12 in3.0 mm 0.99 in25.1 mm
06:40 PM 42.2°F5.7°C 39.8°F4.3°C 91% 1.8 mph N2.9 kmh N 5.0 mph8.0 kmh 29.74 in1007.1 mb 0.05 in1.3 mm 0.00 in0.0 mm 0.99 in25.1 mm
06:45 PM 41.9°F5.5°C 38.9°F3.8°C 89% 3.7 mph N6.0 kmh N 7.0 mph11.3 kmh 29.74 in1007.1 mb 0.04 in1.0 mm 0.00 in0.0 mm 0.99 in25.1 mm
06:50 PM 41.6°F5.3°C 38.9°F3.8°C 90% 2.7 mph N4.3 kmh N 7.0 mph11.3 kmh 29.74 in1007.1 mb 0.05 in1.3 mm 0.12 in3.0 mm 1.00 in25.4 mm
06:55 PM 41.3°F5.2°C 38.6°F3.7°C 90% 2.8 mph N4.5 kmh N 6.0 mph9.7 kmh 29.74 in1007.1 mb 0.06 in1.5 mm 0.12 in3.0 mm 1.01 in25.7 mm
07:00 PM 41.0°F5.0°C 38.3°F3.5°C 90% 1.7 mph N2.7 kmh N 6.0 mph9.7 kmh 29.74 in1007.1 mb 0.06 in1.5 mm 0.00 in0.0 mm 1.02 in25.9 mm
07:05 PM 40.8°F4.9°C 38.1°F3.4°C 90% 2.4 mph N3.9 kmh N 5.0 mph8.0 kmh 29.74 in1007.1 mb 0.06 in1.5 mm 0.00 in0.0 mm 1.02 in25.9 mm
07:10 PM 40.7°F4.8°C 38.0°F3.3°C 90% 1.8 mph N2.9 kmh N 5.0 mph8.0 kmh 29.74 in1007.1 mb 0.06 in1.5 mm 0.00 in0.0 mm 1.03 in26.2 mm
07:15 PM 40.5°F4.7°C 37.8°F3.2°C 90% 2.3 mph N3.7 kmh N 4.0 mph6.4 kmh 29.74 in1007.1 mb 0.06 in1.5 mm 0.00 in0.0 mm 1.03 in26.2 mm
07:20 PM 40.4°F4.7°C 37.7°F3.2°C 90% 1.0 mph N1.6 kmh N 5.0 mph8.0 kmh 29.74 in1007.1 mb 0.05 in1.3 mm 0.00 in0.0 mm 1.03 in26.2 mm
07:25 PM 40.3°F4.6°C 37.9°F3.3°C 91% 0.8 mph N1.3 kmh N 5.0 mph8.0 kmh 29.75 in1007.5 mb 0.06 in1.5 mm 0.12 in3.0 mm 1.04 in26.4 mm
07:30 PM 40.1°F4.5°C 37.4°F3.0°C 90% 2.1 mph N3.4 kmh N 4.0 mph6.4 kmh 29.75 in1007.5 mb 0.07 in1.8 mm 0.12 in3.0 mm 1.05 in26.7 mm
07:35 PM 40.1°F4.5°C 37.7°F3.2°C 91% 1.2 mph N1.9 kmh N 4.0 mph6.4 kmh 29.75 in1007.5 mb 0.06 in1.5 mm 0.00 in0.0 mm 1.05 in26.7 mm
07:40 PM 40.0°F4.4°C 37.6°F3.1°C 91% 1.3 mph N2.1 kmh N 4.0 mph6.4 kmh 29.75 in1007.5 mb 0.07 in1.8 mm 0.12 in3.0 mm 1.06 in26.9 mm
07:45 PM 40.0°F4.4°C 37.6°F3.1°C 91% 1.1 mph N1.8 kmh N 4.0 mph6.4 kmh 29.75 in1007.5 mb 0.07 in1.8 mm 0.00 in0.0 mm 1.06 in26.9 mm
07:50 PM 40.1°F4.5°C 38.0°F3.3°C 92% 0.3 mph N0.5 kmh N 3.0 mph4.8 kmh 29.75 in1007.5 mb 0.07 in1.8 mm 0.00 in0.0 mm 1.07 in27.2 mm
07:55 PM 40.1°F4.5°C 38.0°F3.3°C 92% 0.7 mph E1.1 kmh E 4.0 mph6.4 kmh 29.75 in1007.5 mb 0.07 in1.8 mm 0.00 in0.0 mm 1.08 in27.4 mm
08:00 PM 40.1°F4.5°C 38.0°F3.3°C 92% 0.9 mph E1.4 kmh E 4.0 mph6.4 kmh 29.76 in1007.8 mb 0.07 in1.8 mm 0.00 in0.0 mm 1.09 in27.7 mm
08:05 PM 39.9°F4.4°C 37.8°F3.2°C 92% 1.2 mph E1.9 kmh E 4.0 mph6.4 kmh 29.76 in1007.8 mb 0.08 in2.0 mm 0.12 in3.0 mm 1.10 in27.9 mm
08:10 PM 39.5°F4.2°C 37.4°F3.0°C 92% 1.7 mph E2.7 kmh E 6.0 mph9.7 kmh 29.77 in1008.1 mb 0.08 in2.0 mm 0.00 in0.0 mm 1.11 in28.2 mm
08:15 PM 39.2°F4.0°C 37.1°F2.8°C 92% 1.5 mph ENE2.4 kmh ENE 6.0 mph9.7 kmh 29.77 in1008.1 mb 0.08 in2.0 mm 0.00 in0.0 mm 1.11 in28.2 mm
08:20 PM 38.9°F3.8°C 36.8°F2.7°C 92% 1.2 mph E1.9 kmh E 4.0 mph6.4 kmh 29.77 in1008.1 mb 0.09 in2.3 mm 0.12 in3.0 mm 1.12 in28.4 mm
08:25 PM 38.7°F3.7°C 36.6°F2.6°C 92% 1.8 mph E2.9 kmh E 6.0 mph9.7 kmh 29.77 in1008.1 mb 0.09 in2.3 mm 0.00 in0.0 mm 1.13 in28.7 mm
08:30 PM 38.5°F3.6°C 36.4°F2.4°C 92% 2.3 mph ENE3.7 kmh ENE 6.0 mph9.7 kmh 29.77 in1008.1 mb 0.08 in2.0 mm 0.00 in0.0 mm 1.13 in28.7 mm
08:35 PM 38.3°F3.5°C 36.2°F2.3°C 92% 2.3 mph E3.7 kmh E 6.0 mph9.7 kmh 29.77 in1008.1 mb 0.09 in2.3 mm 0.12 in3.0 mm 1.14 in29.0 mm
08:40 PM 38.1°F3.4°C 36.0°F2.2°C 92% 2.0 mph E3.2 kmh E 6.0 mph9.7 kmh 29.77 in1008.1 mb 0.08 in2.0 mm 0.00 in0.0 mm 1.14 in29.0 mm
08:45 PM 38.0°F3.3°C 35.9°F2.2°C 92% 2.0 mph ENE3.2 kmh ENE 6.0 mph9.7 kmh 29.77 in1008.1 mb 0.09 in2.3 mm 0.12 in3.0 mm 1.15 in29.2 mm
08:50 PM 37.9°F3.3°C 35.8°F2.1°C 92% 2.8 mph ENE4.5 kmh ENE 9.0 mph14.5 kmh 29.77 in1008.1 mb 0.08 in2.0 mm 0.00 in0.0 mm 1.15 in29.2 mm
08:55 PM 37.9°F3.3°C 35.8°F2.1°C 92% 1.6 mph ENE2.6 kmh ENE 9.0 mph14.5 kmh 29.78 in1008.5 mb 0.07 in1.8 mm 0.00 in0.0 mm 1.15 in29.2 mm
09:00 PM 37.8°F3.2°C 35.7°F2.1°C 92% 1.8 mph E2.9 kmh E 5.0 mph8.0 kmh 29.78 in1008.5 mb 0.07 in1.8 mm 0.00 in0.0 mm 1.16 in29.5 mm
09:05 PM 37.8°F3.2°C 35.7°F2.1°C 92% 1.2 mph E1.9 kmh E 5.0 mph8.0 kmh 29.78 in1008.5 mb 0.06 in1.5 mm 0.00 in0.0 mm 1.16 in29.5 mm
09:10 PM 37.7°F3.2°C 35.6°F2.0°C 92% 1.1 mph E1.8 kmh E 4.0 mph6.4 kmh 29.79 in1008.8 mb 0.05 in1.3 mm 0.00 in0.0 mm 1.16 in29.5 mm
09:15 PM 37.7°F3.2°C 35.6°F2.0°C 92% 2.9 mph E4.7 kmh E 6.0 mph9.7 kmh 29.79 in1008.8 mb 0.05 in1.3 mm 0.00 in0.0 mm 1.16 in29.5 mm
09:20 PM 37.6°F3.1°C 35.5°F1.9°C 92% 2.0 mph E3.2 kmh E 6.0 mph9.7 kmh 29.79 in1008.8 mb 0.04 in1.0 mm 0.00 in0.0 mm 1.16 in29.5 mm
09:25 PM 37.6°F3.1°C 35.5°F1.9°C 92% 2.3 mph E3.7 kmh E 5.0 mph8.0 kmh 29.79 in1008.8 mb 0.03 in0.8 mm 0.00 in0.0 mm 1.16 in29.5 mm
09:30 PM 37.6°F3.1°C 35.5°F1.9°C 92% 0.8 mph E1.3 kmh E 5.0 mph8.0 kmh 29.79 in1008.8 mb 0.04 in1.0 mm 0.12 in3.0 mm 1.17 in29.7 mm
09:35 PM 37.6°F3.1°C 35.5°F1.9°C 92% 0.7 mph E1.1 kmh E 5.0 mph8.0 kmh 29.80 in1009.1 mb 0.03 in0.8 mm 0.00 in0.0 mm 1.17 in29.7 mm
09:40 PM 37.6°F3.1°C 35.5°F1.9°C 92% 0.4 mph NE0.6 kmh NE 4.0 mph6.4 kmh 29.80 in1009.1 mb 0.04 in1.0 mm 0.12 in3.0 mm 1.18 in30.0 mm
09:45 PM 37.6°F3.1°C 35.8°F2.1°C 93% 0.8 mph N1.3 kmh N 4.0 mph6.4 kmh 29.80 in1009.1 mb 0.03 in0.8 mm 0.00 in0.0 mm 1.18 in30.0 mm
09:50 PM 37.7°F3.2°C 35.9°F2.2°C 93% 0.8 mph NNE1.3 kmh NNE 4.0 mph6.4 kmh 29.80 in1009.1 mb 0.04 in1.0 mm 0.12 in3.0 mm 1.19 in30.2 mm
09:55 PM 37.8°F3.2°C 35.7°F2.1°C 92% 0.7 mph NNE1.1 kmh NNE 3.0 mph4.8 kmh 29.80 in1009.1 mb 0.04 in1.0 mm 0.00 in0.0 mm 1.19 in30.2 mm
10:00 PM 37.8°F3.2°C 36.0°F2.2°C 93% 0.1 mph NNW0.2 kmh NNW 3.0 mph4.8 kmh 29.80 in1009.1 mb 0.03 in0.8 mm 0.00 in0.0 mm 1.19 in30.2 mm
10:05 PM 37.9°F3.3°C 35.8°F2.1°C 92% 1.4 mph NNE2.3 kmh NNE 4.0 mph6.4 kmh 29.79 in1008.8 mb 0.04 in1.0 mm 0.12 in3.0 mm 1.20 in30.5 mm
10:10 PM 37.9°F3.3°C 36.1°F2.3°C 93% 1.1 mph ENE1.8 kmh ENE 4.0 mph6.4 kmh 29.79 in1008.8 mb 0.05 in1.3 mm 0.12 in3.0 mm 1.21 in30.7 mm
10:15 PM 37.8°F3.2°C 35.7°F2.1°C 92% 1.8 mph E2.9 kmh E 5.0 mph8.0 kmh 29.79 in1008.8 mb 0.05 in1.3 mm 0.00 in0.0 mm 1.21 in30.7 mm
10:20 PM 37.8°F3.2°C 35.7°F2.1°C 92% 1.6 mph NNE2.6 kmh NNE 6.0 mph9.7 kmh 29.79 in1008.8 mb 0.06 in1.5 mm 0.12 in3.0 mm 1.22 in31.0 mm
10:25 PM 37.7°F3.2°C 35.9°F2.2°C 93% 2.0 mph NE3.2 kmh NE 6.0 mph9.7 kmh 29.79 in1008.8 mb 0.06 in1.5 mm 0.00 in0.0 mm 1.22 in31.0 mm
10:30 PM 37.7°F3.2°C 35.9°F2.2°C 93% 1.4 mph ENE2.3 kmh ENE 5.0 mph8.0 kmh 29.78 in1008.5 mb 0.06 in1.5 mm 0.00 in0.0 mm 1.23 in31.2 mm
10:35 PM 37.6°F3.1°C 35.5°F1.9°C 92% 2.6 mph NE4.2 kmh NE 6.0 mph9.7 kmh 29.78 in1008.5 mb 0.06 in1.5 mm 0.00 in0.0 mm 1.23 in31.2 mm
10:40 PM 37.5°F3.1°C 35.7°F2.1°C 93% 2.1 mph NNE3.4 kmh NNE 6.0 mph9.7 kmh 29.78 in1008.5 mb 0.06 in1.5 mm 0.00 in0.0 mm 1.24 in31.5 mm
10:45 PM 37.5°F3.1°C 35.7°F2.1°C 93% 1.5 mph E2.4 kmh E 6.0 mph9.7 kmh 29.78 in1008.5 mb 0.06 in1.5 mm 0.00 in0.0 mm 1.24 in31.5 mm
10:50 PM 37.4°F3.0°C 35.6°F2.0°C 93% 2.2 mph E3.5 kmh E 5.0 mph8.0 kmh 29.78 in1008.5 mb 0.06 in1.5 mm 0.00 in0.0 mm 1.25 in31.8 mm
10:55 PM 37.3°F2.9°C 35.5°F1.9°C 93% 1.8 mph E2.9 kmh E 5.0 mph8.0 kmh 29.78 in1008.5 mb 0.06 in1.5 mm 0.00 in0.0 mm 1.25 in31.8 mm
11:00 PM 37.2°F2.9°C 35.4°F1.9°C 93% 1.9 mph E3.1 kmh E 4.0 mph6.4 kmh 29.78 in1008.5 mb 0.07 in1.8 mm 0.01 in0.3 mm 1.26 in32.0 mm
11:05 PM 37.2°F2.9°C 35.4°F1.9°C 93% 2.2 mph ENE3.5 kmh ENE 6.0 mph9.7 kmh 29.78 in1008.5 mb 0.06 in1.5 mm 0.00 in0.0 mm 1.26 in32.0 mm
11:10 PM 37.2°F2.9°C 35.4°F1.9°C 93% 2.5 mph ENE4.0 kmh ENE 7.0 mph11.3 kmh 29.79 in1008.8 mb 0.06 in1.5 mm 0.00 in0.0 mm 1.27 in32.3 mm
11:15 PM 37.2°F2.9°C 35.4°F1.9°C 93% 1.3 mph NE2.1 kmh NE 7.0 mph11.3 kmh 29.79 in1008.8 mb 0.06 in1.5 mm 0.00 in0.0 mm 1.27 in32.3 mm
11:20 PM 37.2°F2.9°C 35.4°F1.9°C 93% 1.8 mph E2.9 kmh E 6.0 mph9.7 kmh 29.80 in1009.1 mb 0.06 in1.5 mm 0.00 in0.0 mm 1.28 in32.5 mm
11:25 PM 37.2°F2.9°C 35.4°F1.9°C 93% 0.2 mph SE0.3 kmh SE 5.0 mph8.0 kmh 29.80 in1009.1 mb 0.06 in1.5 mm 0.00 in0.0 mm 1.28 in32.5 mm
11:30 PM 37.2°F2.9°C 35.4°F1.9°C 93% 0.3 mph SE0.5 kmh SE 2.0 mph3.2 kmh 29.81 in1009.5 mb 0.05 in1.3 mm 0.00 in0.0 mm 1.28 in32.5 mm
11:35 PM 37.2°F2.9°C 35.4°F1.9°C 93% 0.1 mph E0.2 kmh E 2.0 mph3.2 kmh 29.81 in1009.5 mb 0.07 in1.8 mm 0.24 in6.1 mm 1.30 in33.0 mm
11:40 PM 37.1°F2.8°C 35.3°F1.8°C 93% 0.3 mph ENE0.5 kmh ENE 2.0 mph3.2 kmh 29.81 in1009.5 mb 0.07 in1.8 mm 0.00 in0.0 mm 1.31 in33.3 mm
11:45 PM 37.1°F2.8°C 35.3°F1.8°C 93% 2.2 mph N3.5 kmh N 7.0 mph11.3 kmh 29.79 in1008.8 mb 0.09 in2.3 mm 0.24 in6.1 mm 1.33 in33.8 mm
11:50 PM 37.1°F2.8°C 35.3°F1.8°C 93% 1.0 mph N1.6 kmh N 7.0 mph11.3 kmh 29.80 in1009.1 mb 0.09 in2.3 mm 0.00 in0.0 mm 1.34 in34.0 mm
11:55 PM 37.1°F2.8°C 35.3°F1.8°C 93% Calm Calm 4.0 mph6.4 kmh 29.80 in1009.1 mb 0.09 in2.3 mm 0.00 in0.0 mm 1.34 in34.0 mm